Time,TemperatureF,DewpointF,PressureIn,WindDirection,WindDirectionDegrees,WindSpeedMPH,WindSpeedGustMPH,Humidity,HourlyPrecipIn,Conditions,Clouds,dailyrainin,SoftwareType,DateUTC
2013-02-03 00:00:00,44.3,39.2,30.21,NNE,23,0.0,0.0,82,0.00,,,0.00,WUHU216HW,2013-02-03 08:00:00,
2013-02-03 00:05:00,44.3,39.2,30.21,NNE,23,0.0,0.0,82,0.00,,,0.00,WUHU216HW,2013-02-03 08:05:00,
2013-02-03 00:31:00,43.6,38.4,30.21,NNE,23,0.0,0.0,82,0.00,,,0.00,WUHU216HW,2013-02-03 08:31:00,
2013-02-03 00:36:00,43.6,38.4,30.21,NNE,23,0.0,0.0,82,0.00,,,0.00,WUHU216HW,2013-02-03 08:36:00,
2013-02-03 01:00:00,44.8,40.6,30.21,NW,315,0.0,0.0,85,0.00,,,0.00,WUHU216HW,2013-02-03 09:00:00,
2013-02-03 01:05:00,45.0,40.8,30.21,NW,315,0.0,0.0,85,0.00,,,0.00,WUHU216HW,2013-02-03 09:05:00,
2013-02-03 01:30:00,45.5,41.3,30.20,NW,315,0.0,0.0,85,0.00,,,0.00,WUHU216HW,2013-02-03 09:30:00,
2013-02-03 01:31:00,45.5,41.3,30.20,NW,315,0.0,0.0,85,0.00,,,0.00,WUHU216HW,2013-02-03 09:31:00,
2013-02-03 01:36:00,45.5,41.3,30.20,NW,315,0.0,0.0,85,0.00,,,0.00,WUHU216HW,2013-02-03 09:36:00,
2013-02-03 02:00:00,45.9,42.3,30.21,NW,315,0.0,0.0,87,0.00,,,0.00,WUHU216HW,2013-02-03 10:00:00,
2013-02-03 02:05:00,45.9,42.3,30.21,NW,315,0.0,0.0,87,0.00,,,0.00,WUHU216HW,2013-02-03 10:05:00,
2013-02-03 02:10:00,45.9,42.3,30.21,NW,315,0.0,0.0,87,0.00,,,0.00,WUHU216HW,2013-02-03 10:10:00,
2013-02-03 02:30:00,46.3,42.7,30.21,NW,315,0.0,0.0,87,0.00,,,0.00,WUHU216HW,2013-02-03 10:30:00,
2013-02-03 02:31:00,46.4,42.9,30.21,NW,315,0.0,0.0,87,0.00,,,0.00,WUHU216HW,2013-02-03 10:31:00,
2013-02-03 02:36:00,46.3,42.7,30.21,NW,315,0.0,0.0,87,0.00,,,0.00,WUHU216HW,2013-02-03 10:36:00,
2013-02-03 03:00:00,46.6,43.0,30.21,NW,315,0.0,0.0,87,0.00,,,0.00,WUHU216HW,2013-02-03 11:00:00,
2013-02-03 03:05:00,46.6,43.0,30.21,NW,315,0.0,0.0,87,0.00,,,0.00,WUHU216HW,2013-02-03 11:05:00,
2013-02-03 03:30:00,46.8,43.5,30.20,NW,315,0.0,0.0,88,0.00,,,0.00,WUHU216HW,2013-02-03 11:30:00,
2013-02-03 03:31:00,47.0,43.7,30.20,NW,315,0.0,0.0,88,0.00,,,0.00,WUHU216HW,2013-02-03 11:31:00,
2013-02-03 03:36:00,46.8,43.5,30.20,NW,315,0.0,0.0,88,0.00,,,0.00,WUHU216HW,2013-02-03 11:36:00,
2013-02-03 04:00:00,47.2,43.8,30.20,SSW,203,0.2,0.2,88,0.00,,,0.00,WUHU216HW,2013-02-03 12:00:00,
2013-02-03 04:05:00,47.0,43.7,30.20,SW,225,0.4,0.4,88,0.00,,,0.00,WUHU216HW,2013-02-03 12:05:00,
2013-02-03 04:30:00,47.3,44.0,30.19,SW,225,0.4,0.4,88,0.00,,,0.00,WUHU216HW,2013-02-03 12:30:00,
2013-02-03 04:31:00,47.3,44.0,30.20,SSE,158,0.4,0.4,88,0.00,,,0.00,WUHU216HW,2013-02-03 12:31:00,
2013-02-03 04:36:00,47.3,44.0,30.19,SW,225,0.4,0.4,88,0.00,,,0.00,WUHU216HW,2013-02-03 12:36:00,
2013-02-03 05:00:00,47.3,43.7,30.19,WSW,248,0.2,0.2,87,0.00,,,0.00,WUHU216HW,2013-02-03 13:00:00,
2013-02-03 05:01:00,47.3,44.0,30.19,WSW,248,0.2,0.2,88,0.00,,,0.00,WUHU216HW,2013-02-03 13:01:00,
2013-02-03 05:06:00,47.3,43.7,30.19,WSW,248,0.2,0.2,87,0.00,,,0.00,WUHU216HW,2013-02-03 13:06:00,
2013-02-03 05:30:00,47.3,43.7,30.19,South,180,0.0,0.0,87,0.00,,,0.00,WUHU216HW,2013-02-03 13:30:00,
2013-02-03 05:31:00,47.3,43.7,30.19,South,180,0.0,0.0,87,0.00,,,0.00,WUHU216HW,2013-02-03 13:31:00,
2013-02-03 05:36:00,47.3,43.7,30.19,South,180,0.0,0.0,87,0.00,,,0.00,WUHU216HW,2013-02-03 13:36:00,
2013-02-03 06:00:00,47.2,43.6,30.19,NW,315,0.4,0.4,87,0.00,,,0.00,WUHU216HW,2013-02-03 14:00:00,
2013-02-03 06:05:00,47.2,43.6,30.19,NW,315,0.4,0.4,87,0.00,,,0.00,WUHU216HW,2013-02-03 14:05:00,
2013-02-03 06:30:00,46.4,42.5,30.20,SSW,203,1.8,1.8,86,0.00,,,0.00,WUHU216HW,2013-02-03 14:30:00,
2013-02-03 06:35:00,46.4,42.5,30.20,NNE,23,0.2,1.8,86,0.00,,,0.00,WUHU216HW,2013-02-03 14:35:00,
2013-02-03 07:00:00,46.4,42.5,30.20,NE,45,0.0,0.0,86,0.00,,,0.00,WUHU216HW,2013-02-03 15:00:00,
2013-02-03 07:05:00,46.4,42.5,30.20,NE,45,0.0,0.0,86,0.00,,,0.00,WUHU216HW,2013-02-03 15:05:00,
2013-02-03 07:30:00,45.9,41.7,30.20,South,180,0.0,0.0,85,0.00,,,0.00,WUHU216HW,2013-02-03 15:30:00,
2013-02-03 07:31:00,45.9,41.9,30.20,South,180,0.0,0.0,86,0.00,,,0.00,WUHU216HW,2013-02-03 15:31:00,
2013-02-03 07:36:00,45.9,41.7,30.20,South,180,0.0,0.0,85,0.00,,,0.00,WUHU216HW,2013-02-03 15:36:00,
2013-02-03 07:59:00,44.8,40.6,30.21,South,180,0.0,0.0,85,0.00,,,0.00,WUHU216HW,2013-02-03 15:59:00,
2013-02-03 08:00:00,44.8,40.6,30.21,South,180,0.0,0.0,85,0.00,,,0.00,WUHU216HW,2013-02-03 16:00:00,
2013-02-03 08:05:00,44.8,40.6,30.21,South,180,0.0,0.0,85,0.00,,,0.00,WUHU216HW,2013-02-03 16:05:00,
2013-02-03 08:30:00,50.0,45.6,30.21,South,180,0.0,0.0,85,0.00,,,0.00,WUHU216HW,2013-02-03 16:30:00,
2013-02-03 08:35:00,50.0,45.6,30.21,South,180,0.0,0.0,85,0.00,,,0.00,WUHU216HW,2013-02-03 16:35:00,
2013-02-03 09:00:00,49.3,44.3,30.22,SSW,203,0.4,0.4,83,0.00,,,0.00,WUHU216HW,2013-02-03 17:00:00,
2013-02-03 09:05:00,49.3,44.3,30.22,SSW,203,0.4,0.4,83,0.00,,,0.00,WUHU216HW,2013-02-03 17:05:00,
2013-02-03 09:30:00,49.3,44.0,30.21,NNW,338,0.9,0.9,82,0.00,,,0.00,WUHU216HW,2013-02-03 17:30:00,
2013-02-03 09:31:00,49.3,44.0,30.21,NW,315,0.4,0.4,82,0.00,,,0.00,WUHU216HW,2013-02-03 17:31:00,
2013-02-03 09:35:00,49.3,44.0,30.21,NNW,338,0.9,0.9,82,0.00,,,0.00,WUHU216HW,2013-02-03 17:35:00,
2013-02-03 10:00:00,50.4,44.7,30.21,West,270,1.1,1.1,81,0.00,,,0.00,WUHU216HW,2013-02-03 18:00:00,
2013-02-03 10:05:00,50.4,44.7,30.21,West,270,1.8,1.8,81,0.00,,,0.00,WUHU216HW,2013-02-03 18:05:00,
2013-02-03 10:31:00,50.8,44.1,30.23,NNE,23,0.0,0.0,78,0.00,,,0.00,WUHU216HW,2013-02-03 18:31:00,
2013-02-03 10:36:00,50.8,44.1,30.23,NNE,23,0.0,0.0,78,0.00,,,0.00,WUHU216HW,2013-02-03 18:36:00,
2013-02-03 11:00:00,51.5,44.6,30.22,South,180,0.7,0.7,77,0.00,,,0.00,WUHU216HW,2013-02-03 19:00:00,
2013-02-03 11:05:00,51.3,44.4,30.22,South,180,0.7,0.7,77,0.00,,,0.00,WUHU216HW,2013-02-03 19:05:00,
2013-02-03 11:30:00,52.7,45.4,30.20,North,0,0.2,0.2,76,0.00,,,0.00,WUHU216HW,2013-02-03 19:30:00,
2013-02-03 11:31:00,52.7,45.4,30.20,North,0,0.2,0.2,76,0.00,,,0.00,WUHU216HW,2013-02-03 19:31:00,
2013-02-03 11:36:00,52.7,45.4,30.20,North,0,0.2,0.2,76,0.00,,,0.00,WUHU216HW,2013-02-03 19:36:00,
2013-02-03 12:00:00,53.6,45.9,30.18,SSE,158,1.8,1.8,75,0.00,,,0.00,WUHU216HW,2013-02-03 20:00:00,
2013-02-03 12:05:00,53.6,45.9,30.17,SSE,158,0.4,1.8,75,0.00,,,0.00,WUHU216HW,2013-02-03 20:05:00,
2013-02-03 12:30:00,55.4,46.9,30.17,East,90,0.9,0.9,73,0.00,,,0.00,WUHU216HW,2013-02-03 20:30:00,
2013-02-03 12:31:00,55.3,46.5,30.17,WSW,248,0.0,0.0,72,0.00,,,0.00,WUHU216HW,2013-02-03 20:31:00,
2013-02-03 12:36:00,55.4,46.9,30.17,East,90,0.9,0.9,73,0.00,,,0.00,WUHU216HW,2013-02-03 20:36:00,
2013-02-03 13:00:00,56.9,46.8,30.15,SSE,158,0.0,0.0,69,0.00,,,0.00,WUHU216HW,2013-02-03 21:00:00,
2013-02-03 13:05:00,56.9,46.8,30.16,South,180,0.0,0.0,69,0.00,,,0.00,WUHU216HW,2013-02-03 21:05:00,
2013-02-03 13:30:00,59.4,48.1,30.14,SW,225,0.9,1.6,66,0.00,,,0.00,WUHU216HW,2013-02-03 21:30:00,
2013-02-03 13:31:00,59.4,48.1,30.14,WSW,248,1.1,1.1,66,0.00,,,0.00,WUHU216HW,2013-02-03 21:31:00,
2013-02-03 13:36:00,59.4,48.1,30.14,SW,225,0.9,1.6,66,0.00,,,0.00,WUHU216HW,2013-02-03 21:36:00,
2013-02-03 13:41:00,59.4,48.1,30.14,SW,225,0.9,0.9,66,0.00,,,0.00,WUHU216HW,2013-02-03 21:41:00,
2013-02-03 14:00:00,61.4,49.2,30.14,SSW,203,0.7,0.7,64,0.00,,,0.00,WUHU216HW,2013-02-03 22:00:00,
2013-02-03 14:05:00,61.4,49.2,30.14,SSW,203,0.7,0.7,64,0.00,,,0.00,WUHU216HW,2013-02-03 22:05:00,
2013-02-03 14:30:00,62.3,49.2,30.13,NNW,338,0.7,1.8,62,0.00,,,0.00,WUHU216HW,2013-02-03 22:30:00,
2013-02-03 14:31:00,62.1,49.0,30.13,NW,315,1.8,1.8,62,0.00,,,0.00,WUHU216HW,2013-02-03 22:31:00,
2013-02-03 14:36:00,62.3,49.2,30.13,NNW,338,0.7,1.8,62,0.00,,,0.00,WUHU216HW,2013-02-03 22:36:00,
2013-02-03 15:00:00,63.2,49.1,30.12,NW,315,0.4,0.4,60,0.00,,,0.00,WUHU216HW,2013-02-03 23:00:00,
2013-02-03 15:05:00,63.2,49.1,30.12,SW,225,0.4,0.4,60,0.00,,,0.00,WUHU216HW,2013-02-03 23:05:00,
2013-02-03 15:30:00,63.2,49.1,30.12,SSW,203,0.9,1.1,60,0.00,,,0.00,WUHU216HW,2013-02-03 23:30:00,
2013-02-03 15:31:00,63.2,49.1,30.12,SW,225,1.1,1.1,60,0.00,,,0.00,WUHU216HW,2013-02-03 23:31:00,
2013-02-03 15:36:00,63.2,49.1,30.12,SSW,203,0.9,1.1,60,0.00,,,0.00,WUHU216HW,2013-02-03 23:36:00,
2013-02-03 16:00:00,63.0,48.4,30.11,SSW,203,0.7,0.7,59,0.00,,,0.00,WUHU216HW,2013-02-04 00:00:00,
2013-02-03 16:05:00,63.0,48.4,30.11,WSW,248,1.6,1.6,59,0.00,,,0.00,WUHU216HW,2013-02-04 00:05:00,
2013-02-03 16:30:00,61.9,48.3,30.11,South,180,0.0,0.4,61,0.00,,,0.00,WUHU216HW,2013-02-04 00:30:00,
2013-02-03 16:31:00,61.9,48.3,30.11,SSE,158,0.4,0.4,61,0.00,,,0.00,WUHU216HW,2013-02-04 00:31:00,
2013-02-03 16:36:00,61.9,48.3,30.11,South,180,0.0,0.4,61,0.00,,,0.00,WUHU216HW,2013-02-04 00:36:00,
2013-02-03 17:00:00,60.3,47.3,30.11,SSE,158,0.4,0.4,62,0.00,,,0.00,WUHU216HW,2013-02-04 01:00:00,
2013-02-03 17:05:00,60.3,47.3,30.11,SSE,158,0.4,0.4,62,0.00,,,0.00,WUHU216HW,2013-02-04 01:05:00,
2013-02-03 17:30:00,58.0,45.8,30.12,SW,225,0.4,0.4,64,0.00,,,0.00,WUHU216HW,2013-02-04 01:30:00,
2013-02-03 17:35:00,58.0,45.8,30.12,SW,225,0.4,0.4,64,0.00,,,0.00,WUHU216HW,2013-02-04 01:35:00,
2013-02-03 18:00:00,55.4,44.6,30.12,SW,225,1.1,1.1,67,0.00,,,0.00,WUHU216HW,2013-02-04 02:00:00,
2013-02-03 18:05:00,55.4,44.6,30.12,SW,225,1.1,1.1,67,0.00,,,0.00,WUHU216HW,2013-02-04 02:05:00,
2013-02-03 18:30:00,53.6,43.8,30.12,SSW,203,0.0,0.0,69,0.00,,,0.00,WUHU216HW,2013-02-04 02:30:00,
2013-02-03 18:31:00,53.5,43.6,30.12,SSW,203,0.0,0.0,69,0.00,,,0.00,WUHU216HW,2013-02-04 02:31:00,
2013-02-03 18:35:00,53.5,43.6,30.12,SSW,203,0.0,0.0,69,0.00,,,0.00,WUHU216HW,2013-02-04 02:35:00,
2013-02-03 18:40:00,53.5,43.6,30.12,SSW,203,0.0,0.0,69,0.00,,,0.00,WUHU216HW,2013-02-04 02:40:00,
2013-02-03 19:00:00,51.7,42.7,30.12,West,270,0.0,0.0,71,0.00,,,0.00,WUHU216HW,2013-02-04 03:00:00,
2013-02-03 19:05:00,51.7,42.7,30.12,West,270,0.0,0.0,71,0.00,,,0.00,WUHU216HW,2013-02-04 03:05:00,
2013-02-03 19:30:00,50.0,41.4,30.13,West,270,0.0,0.0,72,0.00,,,0.00,WUHU216HW,2013-02-04 03:30:00,
2013-02-03 19:31:00,50.0,41.4,30.13,West,270,0.0,0.0,72,0.00,,,0.00,WUHU216HW,2013-02-04 03:31:00,
2013-02-03 19:36:00,50.0,41.4,30.13,West,270,0.0,0.0,72,0.00,,,0.00,WUHU216HW,2013-02-04 03:36:00,
2013-02-03 20:00:00,48.8,40.4,30.14,NW,315,0.0,0.0,73,0.00,,,0.00,WUHU216HW,2013-02-04 04:00:00,
2013-02-03 20:05:00,48.8,40.4,30.14,NW,315,0.0,0.0,73,0.00,,,0.00,WUHU216HW,2013-02-04 04:05:00,
2013-02-03 20:31:00,47.9,40.2,30.14,NW,315,0.0,0.0,75,0.00,,,0.00,WUHU216HW,2013-02-04 04:31:00,
2013-02-03 20:36:00,47.9,40.2,30.14,NW,315,0.0,0.0,75,0.00,,,0.00,WUHU216HW,2013-02-04 04:36:00,
2013-02-03 20:41:00,47.9,40.2,30.14,NW,315,0.0,0.0,75,0.00,,,0.00,WUHU216HW,2013-02-04 04:41:00,
2013-02-03 21:00:00,46.6,39.5,30.14,NW,315,0.0,0.0,76,0.00,,,0.00,WUHU216HW,2013-02-04 05:00:00,
2013-02-03 21:02:00,46.6,39.5,30.14,NW,315,0.0,0.0,76,0.00,,,0.00,WUHU216HW,2013-02-04 05:02:00,
2013-02-03 21:03:00,46.6,39.5,30.14,NW,315,0.0,0.0,76,0.00,,,0.00,WUHU216HW,2013-02-04 05:03:00,
2013-02-03 21:08:00,46.6,39.5,30.14,NW,315,0.0,0.0,76,0.00,,,0.00,WUHU216HW,2013-02-04 05:08:00,
2013-02-03 21:30:00,46.1,39.3,30.14,NW,315,0.0,0.0,77,0.00,,,0.00,WUHU216HW,2013-02-04 05:30:00,
2013-02-03 21:31:00,46.1,39.3,30.14,NW,315,0.0,0.0,77,0.00,,,0.00,WUHU216HW,2013-02-04 05:31:00,
2013-02-03 21:36:00,46.1,39.3,30.14,NW,315,0.0,0.0,77,0.00,,,0.00,WUHU216HW,2013-02-04 05:36:00,
2013-02-03 22:00:00,45.2,38.4,30.14,NW,315,0.0,0.0,77,0.00,,,0.00,WUHU216HW,2013-02-04 06:00:00,
2013-02-03 22:05:00,45.0,38.3,30.14,NW,315,0.0,0.0,77,0.00,,,0.00,WUHU216HW,2013-02-04 06:05:00,
2013-02-03 22:31:00,44.1,37.7,30.14,WNW,293,0.0,0.0,78,0.00,,,0.00,WUHU216HW,2013-02-04 06:31:00,
2013-02-03 22:36:00,44.1,37.7,30.14,West,270,0.0,0.0,78,0.00,,,0.00,WUHU216HW,2013-02-04 06:36:00,
2013-02-03 23:00:00,44.1,38.0,30.14,SSW,203,0.0,0.0,79,0.00,,,0.00,WUHU216HW,2013-02-04 07:00:00,
2013-02-03 23:05:00,44.1,38.0,30.14,SSW,203,0.0,0.0,79,0.00,,,0.00,WUHU216HW,2013-02-04 07:05:00,
2013-02-03 23:30:00,43.6,37.8,30.14,SW,225,0.2,0.2,80,0.00,,,0.00,WUHU216HW,2013-02-04 07:30:00,
2013-02-03 23:31:00,43.6,37.8,30.14,SW,225,0.2,0.2,80,0.00,,,0.00,WUHU216HW,2013-02-04 07:31:00,
2013-02-03 23:36:00,43.6,37.8,30.14,SW,225,0.2,0.2,80,0.00,,,0.00,WUHU216HW,2013-02-04 07:36:00,